Time;durP1;ratioP1;P1;durP2;ratioP2;P2;SDS_P1;SDS_P2;PMS_P1;PMS_P2;Temp;Humidity;BMP_temperature;BMP_pressure;BME280_temperature;BME280_humidity;BME280_pressure;Samples;Min_cycle;Max_cycle;Signal;HPM_P1;HPM_P2
2023/12/03 00:00:17;;;;;;;4.00;3.70;;;15.80;39.30;;;;;;5013781;28;20287;-81
2023/12/03 00:02:44;;;;;;;3.78;3.47;;;15.90;39.30;;;;;;4997692;28;20197;-81
2023/12/03 00:05:11;;;;;;;3.65;3.33;;;15.90;39.30;;;;;;5013428;28;20232;-81
2023/12/03 00:07:39;;;;;;;3.75;3.45;;;15.90;39.30;;;;;;5013553;28;20200;-81
2023/12/03 00:10:07;;;;;;;3.58;3.33;;;15.90;39.40;;;;;;5014468;28;20209;-81
2023/12/03 00:12:35;;;;;;;3.85;3.55;;;15.90;39.30;;;;;;5017278;28;20201;-81
2023/12/03 00:15:02;;;;;;;3.70;3.40;;;15.90;39.50;;;;;;5018512;28;20228;-81
2023/12/03 00:17:29;;;;;;;3.75;3.45;;;15.80;39.30;;;;;;5018597;28;20203;-81
2023/12/03 00:19:56;;;;;;;3.80;3.47;;;15.80;39.20;;;;;;5016942;28;20209;-81
2023/12/03 00:22:23;;;;;;;3.80;3.50;;;15.80;39.30;;;;;;5017107;28;20544;-81
2023/12/03 00:24:52;;;;;;;3.60;3.30;;;15.80;39.40;;;;;;5017195;28;20699;-81
2023/12/03 00:27:19;;;;;;;3.60;3.30;;;15.80;39.50;;;;;;5017599;28;20284;-81
2023/12/03 00:29:46;;;;;;;3.45;3.17;;;15.80;39.50;;;;;;5001123;28;20327;-81
2023/12/03 00:32:13;;;;;;;3.42;3.20;;;15.80;39.40;;;;;;5017320;28;20196;-81
2023/12/03 00:34:40;;;;;;;3.70;3.40;;;15.90;39.30;;;;;;5017254;28;20193;-81
2023/12/03 00:37:07;;;;;;;3.42;3.15;;;15.80;39.30;;;;;;5017573;28;20196;-81
2023/12/03 00:39:34;;;;;;;3.33;3.03;;;15.80;39.20;;;;;;5017451;28;20230;-81
2023/12/03 00:42:02;;;;;;;3.60;3.30;;;15.80;39.50;;;;;;5017160;28;20209;-81
2023/12/03 00:44:29;;;;;;;3.65;3.35;;;15.80;39.20;;;;;;5016779;28;20741;-81
2023/12/03 00:46:56;;;;;;;3.33;3.03;;;15.80;39.20;;;;;;5016862;28;20205;-81
2023/12/03 00:49:24;;;;;;;3.58;3.28;;;15.80;39.20;;;;;;5017087;28;20196;-81
2023/12/03 00:51:50;;;;;;;3.83;3.53;;;15.80;39.10;;;;;;5016847;28;20606;-81
2023/12/03 00:54:18;;;;;;;3.53;3.22;;;15.90;39.20;;;;;;5016921;28;20542;-81
2023/12/03 00:56:45;;;;;;;3.17;2.95;;;15.90;39.30;;;;;;5016409;28;20227;-81
2023/12/03 00:59:13;;;;;;;3.28;3.00;;;15.90;39.30;;;;;;5016795;28;20625;-81
2023/12/03 01:01:40;;;;;;;3.47;3.17;;;15.90;39.00;;;;;;5016701;28;20200;-81
2023/12/03 01:04:08;;;;;;;3.70;3.40;;;15.80;39.20;;;;;;5016493;28;20217;-82
2023/12/03 01:06:35;;;;;;;3.05;2.85;;;15.80;39.10;;;;;;5016065;28;20268;-81
2023/12/03 01:09:02;;;;;;;3.55;3.25;;;15.80;39.10;;;;;;5015799;28;20209;-81
2023/12/03 01:11:29;;;;;;;3.47;3.17;;;15.80;39.20;;;;;;5016464;28;20224;-81
2023/12/03 01:13:56;;;;;;;3.70;3.40;;;15.80;39.20;;;;;;5016170;28;20263;-81
2023/12/03 01:16:24;;;;;;;3.70;3.40;;;15.80;39.20;;;;;;5016166;28;20219;-81
2023/12/03 01:18:51;;;;;;;3.22;3.03;;;15.80;39.30;;;;;;5016484;28;20572;-80
2023/12/03 01:21:18;;;;;;;3.70;3.40;;;15.70;39.30;;;;;;5030402;28;20205;-81
2023/12/03 01:23:45;;;;;;;3.47;3.17;;;15.80;39.20;;;;;;5027396;28;20205;-81
2023/12/03 01:26:12;;;;;;;3.63;3.33;;;15.80;39.30;;;;;;5021601;28;20311;-81
2023/12/03 01:28:39;;;;;;;3.15;2.90;;;15.70;39.10;;;;;;5020666;28;20197;-81
2023/12/03 01:31:07;;;;;;;3.38;3.00;;;15.80;39.20;;;;;;5020844;28;20205;-81
2023/12/03 01:33:35;;;;;;;3.75;3.45;;;15.80;39.50;;;;;;5019722;28;20197;-81
2023/12/03 01:36:02;;;;;;;3.10;2.90;;;15.80;39.20;;;;;;5019556;28;20300;-81
2023/12/03 01:38:29;;;;;;;3.20;3.00;;;15.80;39.20;;;;;;5018526;28;20203;-81
2023/12/03 01:40:56;;;;;;;3.20;3.00;;;15.80;39.20;;;;;;5015453;28;20605;-81
2023/12/03 01:43:23;;;;;;;3.33;3.13;;;15.80;39.10;;;;;;5015909;28;20200;-81
2023/12/03 01:45:50;;;;;;;3.00;2.80;;;15.80;39.30;;;;;;5015338;28;20594;-81
2023/12/03 01:48:17;;;;;;;3.45;3.15;;;15.80;39.20;;;;;;5015387;28;20196;-81
2023/12/03 01:50:46;;;;;;;3.20;3.00;;;15.80;39.10;;;;;;5015327;28;20201;-81
2023/12/03 01:53:13;;;;;;;3.80;3.50;;;15.80;39.10;;;;;;5015414;28;20197;-81
2023/12/03 01:55:40;;;;;;;3.55;3.25;;;15.80;39.20;;;;;;5014919;28;20304;-81
2023/12/03 01:58:07;;;;;;;3.28;3.00;;;15.80;39.20;;;;;;5015038;28;20291;-81
2023/12/03 02:00:34;;;;;;;3.15;2.95;;;15.80;39.20;;;;;;5056023;23;20233;-83
2023/12/03 02:03:04;;;;;;;3.70;3.03;;;15.80;39.20;;;;;;5015574;28;20304;-83
2023/12/03 02:05:31;;;;;;;3.60;3.30;;;15.70;39.10;;;;;;5014459;28;20255;-83
2023/12/03 02:08:00;;;;;;;3.40;3.20;;;15.80;39.30;;;;;;5014611;28;20300;-83
2023/12/03 02:10:27;;;;;;;3.13;2.92;;;15.70;39.20;;;;;;5014144;28;20201;-83
2023/12/03 02:12:54;;;;;;;3.20;2.90;;;15.80;39.10;;;;;;5014755;28;20205;-83
2023/12/03 02:15:21;;;;;;;3.22;3.03;;;15.80;39.00;;;;;;5014434;28;20309;-83
2023/12/03 02:17:48;;;;;;;3.08;2.88;;;15.80;39.10;;;;;;5014305;28;20598;-83
2023/12/03 02:20:15;;;;;;;3.60;3.30;;;15.80;39.10;;;;;;5014138;28;20724;-83
2023/12/03 02:22:57;;;;;;;3.83;3.53;;;15.70;38.80;;;;;;5014463;28;20203;-83
2023/12/03 02:25:24;;;;;;;3.38;3.17;;;15.80;39.10;;;;;;5014769;28;20224;-83
2023/12/03 02:27:51;;;;;;;3.55;3.22;;;15.70;38.90;;;;;;5014255;28;20283;-83
2023/12/03 02:30:18;;;;;;;3.28;3.08;;;15.80;39.00;;;;;;4997490;28;20208;-83
2023/12/03 02:32:45;;;;;;;3.13;2.92;;;15.80;39.00;;;;;;5013321;28;20192;-83
2023/12/03 02:35:12;;;;;;;3.38;3.08;;;15.80;39.00;;;;;;5013952;28;20274;-83
2023/12/03 02:37:39;;;;;;;3.53;3.22;;;15.70;38.80;;;;;;5014135;28;20203;-83
2023/12/03 02:40:09;;;;;;;2.88;2.67;;;15.80;39.10;;;;;;5014214;28;20292;-84
2023/12/03 02:42:36;;;;;;;3.53;3.22;;;15.70;39.00;;;;;;5014615;28;20272;-83
2023/12/03 02:45:05;;;;;;;2.92;2.72;;;15.80;39.00;;;;;;4997350;28;20227;-83
2023/12/03 02:47:32;;;;;;;3.40;3.10;;;15.70;39.60;;;;;;5013535;28;20205;-83
2023/12/03 02:49:59;;;;;;;3.17;2.90;;;15.70;38.90;;;;;;5013820;28;20216;-83
2023/12/03 02:52:26;;;;;;;3.35;3.15;;;15.80;39.10;;;;;;5014015;28;20201;-83
2023/12/03 02:54:53;;;;;;;2.90;2.70;;;15.70;39.00;;;;;;5013568;28;20276;-84
2023/12/03 02:57:21;;;;;;;3.33;3.03;;;15.70;39.00;;;;;;4997401;28;20192;-83
2023/12/03 02:59:48;;;;;;;3.10;2.80;;;15.70;38.90;;;;;;5000809;28;20219;-83
2023/12/03 03:02:16;;;;;;;3.40;3.10;;;15.80;39.10;;;;;;5024446;28;20197;-83
2023/12/03 03:04:42;;;;;;;3.17;2.97;;;15.80;39.10;;;;;;5031342;28;20201;-83
2023/12/03 03:07:09;;;;;;;2.60;2.40;;;15.70;39.00;;;;;;5033092;28;20244;-84
2023/12/03 03:09:37;;;;;;;3.33;3.03;;;15.70;39.00;;;;;;5017582;28;20189;-84
2023/12/03 03:12:04;;;;;;;3.00;2.80;;;15.70;39.00;;;;;;5033894;28;20225;-84
2023/12/03 03:14:32;;;;;;;3.20;3.00;;;15.70;39.00;;;;;;5028622;28;20239;-83
2023/12/03 03:17:00;;;;;;;3.08;2.78;;;15.70;38.90;;;;;;5028625;28;20201;-84
2023/12/03 03:19:26;;;;;;;3.22;2.92;;;15.70;39.00;;;;;;5031521;28;20201;-83
2023/12/03 03:21:53;;;;;;;2.97;2.78;;;15.70;39.00;;;;;;5031772;28;20203;-84
2023/12/03 03:24:20;;;;;;;3.05;2.85;;;15.80;39.00;;;;;;5028420;28;20205;-84
2023/12/03 03:26:47;;;;;;;3.10;2.90;;;15.70;39.00;;;;;;5031403;28;20217;-84
2023/12/03 03:29:14;;;;;;;3.05;2.85;;;15.80;39.00;;;;;;5033769;28;20219;-84
2023/12/03 03:31:42;;;;;;;2.70;2.50;;;15.80;38.90;;;;;;5033819;28;20200;-84
2023/12/03 03:34:09;;;;;;;3.20;2.90;;;15.80;39.00;;;;;;5034053;28;20201;-84
2023/12/03 03:36:36;;;;;;;3.40;3.10;;;15.80;38.90;;;;;;5033992;28;20240;-84
2023/12/03 03:39:03;;;;;;;3.10;2.90;;;15.80;39.00;;;;;;5031307;28;20197;-84
2023/12/03 03:41:30;;;;;;;3.00;2.80;;;15.80;38.90;;;;;;5029440;28;20197;-84
2023/12/03 03:43:57;;;;;;;3.00;2.80;;;15.80;38.90;;;;;;5030487;28;20201;-83
2023/12/03 03:46:24;;;;;;;3.50;3.20;;;15.80;38.90;;;;;;5033478;28;20220;-84
2023/12/03 03:48:54;;;;;;;3.47;3.22;;;15.70;38.90;;;;;;5033147;28;20236;-84
2023/12/03 03:51:21;;;;;;;2.67;2.47;;;15.80;39.00;;;;;;5033248;28;20200;-84
2023/12/03 03:53:48;;;;;;;3.35;3.08;;;15.80;38.90;;;;;;5033277;28;20201;-84
2023/12/03 03:56:16;;;;;;;3.53;3.22;;;15.80;38.90;;;;;;5032344;28;20228;-84
2023/12/03 03:58:43;;;;;;;3.30;3.10;;;15.80;38.90;;;;;;5032353;28;20199;-84
2023/12/03 04:01:11;;;;;;;3.00;2.80;;;15.70;38.80;;;;;;5031966;28;20232;-83
2023/12/03 04:03:38;;;;;;;2.72;2.53;;;15.70;39.00;;;;;;5031933;28;20201;-83
2023/12/03 04:06:08;;;;;;;3.17;2.88;;;15.70;39.00;;;;;;5032145;28;20230;-84
2023/12/03 04:08:35;;;;;;;2.92;2.72;;;15.70;39.00;;;;;;5032104;28;20211;-83
2023/12/03 04:11:03;;;;;;;2.38;2.22;;;15.70;39.00;;;;;;5031236;28;20284;-84
2023/12/03 04:13:31;;;;;;;2.83;2.63;;;15.70;38.90;;;;;;5030838;28;20212;-84
2023/12/03 04:15:58;;;;;;;3.03;2.83;;;15.80;39.00;;;;;;5028362;28;20642;-83
2023/12/03 04:18:25;;;;;;;2.92;2.72;;;15.70;38.70;;;;;;5017472;28;20536;-83
2023/12/03 04:20:53;;;;;;;2.97;2.78;;;15.70;38.70;;;;;;5017416;28;20196;-83
2023/12/03 04:23:21;;;;;;;3.08;2.88;;;15.70;38.80;;;;;;5017511;28;20196;-84
2023/12/03 04:25:48;;;;;;;2.97;2.67;;;15.70;38.80;;;;;;5019021;28;20217;-83
2023/12/03 04:28:15;;;;;;;2.78;2.58;;;15.70;38.80;;;;;;5019935;28;20249;-83
2023/12/03 04:30:43;;;;;;;2.90;2.70;;;15.60;38.80;;;;;;5003587;28;20212;-83
2023/12/03 04:33:10;;;;;;;2.88;2.67;;;15.60;38.70;;;;;;5020277;28;20204;-83
2023/12/03 04:35:38;;;;;;;3.35;3.08;;;15.60;38.70;;;;;;5020371;28;20228;-83
2023/12/03 04:38:05;;;;;;;2.80;2.60;;;15.50;38.70;;;;;;5003277;28;20602;-83
2023/12/03 04:40:34;;;;;;;3.00;2.80;;;15.40;38.70;;;;;;5021725;28;20659;-83
2023/12/03 04:43:01;;;;;;;2.78;2.58;;;15.40;38.90;;;;;;5019110;28;20193;-83
2023/12/03 04:45:27;;;;;;;2.63;2.42;;;15.40;39.00;;;;;;5000977;28;20228;-83
2023/12/03 04:47:54;;;;;;;2.85;2.65;;;15.30;39.00;;;;;;5017231;28;20200;-83
2023/12/03 04:50:22;;;;;;;2.97;2.78;;;15.30;39.20;;;;;;5016769;28;20663;-83
2023/12/03 04:52:49;;;;;;;3.20;2.90;;;15.30;39.00;;;;;;5017016;28;20634;-83
2023/12/03 04:55:16;;;;;;;2.88;2.67;;;15.30;39.40;;;;;;5015718;28;20222;-83
2023/12/03 04:57:44;;;;;;;2.70;2.50;;;15.30;39.40;;;;;;5016154;28;20197;-83
2023/12/03 05:00:12;;;;;;;2.88;2.67;;;15.30;39.40;;;;;;5015954;28;20621;-83
2023/12/03 05:02:39;;;;;;;2.90;2.70;;;15.30;39.30;;;;;;5018305;28;20243;-83
2023/12/03 05:05:07;;;;;;;2.80;2.60;;;15.30;39.20;;;;;;5022531;28;20213;-83
2023/12/03 05:07:34;;;;;;;2.78;2.58;;;15.40;39.20;;;;;;5016634;28;20275;-83
2023/12/03 05:10:01;;;;;;;3.05;2.85;;;15.40;39.20;;;;;;5016285;28;20204;-83
2023/12/03 05:12:28;;;;;;;2.90;2.70;;;15.40;39.10;;;;;;5000124;28;20196;-83
2023/12/03 05:14:57;;;;;;;3.05;2.78;;;15.40;39.00;;;;;;5016511;28;20223;-83
2023/12/03 05:17:24;;;;;;;2.90;2.70;;;15.40;39.00;;;;;;5015480;28;20196;-83
2023/12/03 05:19:51;;;;;;;2.90;2.70;;;15.40;39.00;;;;;;5015962;28;20621;-83
2023/12/03 05:22:18;;;;;;;2.60;2.40;;;15.40;39.00;;;;;;5015794;28;20308;-83
2023/12/03 05:24:45;;;;;;;2.85;2.65;;;15.50;39.10;;;;;;5015787;28;20228;-83
2023/12/03 05:27:12;;;;;;;2.83;2.63;;;15.50;39.00;;;;;;4999130;28;20224;-83
2023/12/03 05:29:43;;;;;;;3.50;3.20;;;15.50;38.80;;;;;;5015251;28;20200;-83
2023/12/03 05:32:11;;;;;;;2.55;2.38;;;15.40;38.70;;;;;;5016478;28;20281;-83
2023/12/03 05:34:38;;;;;;;2.90;2.70;;;15.40;38.60;;;;;;5015008;28;20274;-83
2023/12/03 05:37:05;;;;;;;2.80;2.60;;;15.50;38.90;;;;;;5015654;28;20662;-83
2023/12/03 05:39:32;;;;;;;3.03;2.72;;;15.50;38.60;;;;;;4998596;28;20201;-83
2023/12/03 05:41:59;;;;;;;3.00;2.80;;;15.40;38.70;;;;;;5014941;28;20671;-83
2023/12/03 05:44:26;;;;;;;3.13;2.90;;;15.50;38.70;;;;;;4998919;28;20200;-83
2023/12/03 05:46:53;;;;;;;3.45;3.10;;;15.50;38.60;;;;;;5015162;28;20243;-83
2023/12/03 05:49:22;;;;;;;2.78;2.58;;;15.50;38.70;;;;;;5014884;28;20200;-83
2023/12/03 05:51:49;;;;;;;3.30;3.00;;;15.50;38.70;;;;;;5015199;28;20192;-83
2023/12/03 05:54:17;;;;;;;3.00;2.80;;;15.50;38.70;;;;;;5014759;28;20295;-83
2023/12/03 05:56:44;;;;;;;2.92;2.72;;;15.50;38.70;;;;;;5015011;28;20633;-84
2023/12/03 05:59:11;;;;;;;3.40;3.10;;;15.50;38.60;;;;;;5014762;28;20263;-83
2023/12/03 06:01:39;;;;;;;3.28;3.00;;;15.60;38.70;;;;;;5018967;28;20207;-83
2023/12/03 06:04:07;;;;;;;2.60;2.40;;;15.50;38.50;;;;;;5022177;28;20200;-83
2023/12/03 06:06:36;;;;;;;2.85;2.65;;;15.50;38.50;;;;;;5022044;28;20292;-84
2023/12/03 06:09:03;;;;;;;3.20;3.00;;;15.50;38.60;;;;;;5021848;28;20197;-84
2023/12/03 06:11:32;;;;;;;3.67;3.03;;;15.50;38.50;;;;;;5019130;28;20232;-83
2023/12/03 06:13:59;;;;;;;2.80;2.60;;;15.50;38.60;;;;;;5017720;28;20201;-83
2023/12/03 06:16:26;;;;;;;3.10;2.90;;;15.50;38.50;;;;;;5014825;28;20223;-83
2023/12/03 06:18:52;;;;;;;3.35;2.80;;;15.50;38.30;;;;;;5015483;28;20715;-83
2023/12/03 06:21:20;;;;;;;3.40;3.10;;;15.50;38.30;;;;;;5016479;28;20228;-83
2023/12/03 06:23:48;;;;;;;2.88;2.67;;;15.50;38.50;;;;;;5016625;28;20292;-84
2023/12/03 06:26:15;;;;;;;2.97;2.78;;;15.40;38.40;;;;;;5016907;28;20220;-83
2023/12/03 06:28:43;;;;;;;2.88;2.60;;;15.50;38.50;;;;;;5016136;28;20197;-83
2023/12/03 06:31:10;;;;;;;3.00;2.70;;;15.50;38.50;;;;;;5026925;28;20209;-83
2023/12/03 06:33:37;;;;;;;2.92;2.72;;;15.50;38.40;;;;;;5012363;28;20201;-84
2023/12/03 06:36:04;;;;;;;3.00;2.70;;;15.50;38.40;;;;;;5028405;28;20221;-84
2023/12/03 06:38:32;;;;;;;3.50;3.25;;;15.50;38.40;;;;;;5028497;28;20272;-84
2023/12/03 06:41:00;;;;;;;3.35;3.08;;;15.50;38.30;;;;;;5029323;28;20200;-84
2023/12/03 06:43:27;;;;;;;2.75;2.55;;;15.50;38.30;;;;;;5028341;28;20272;-84
2023/12/03 06:45:54;;;;;;;3.08;2.78;;;15.50;38.40;;;;;;5027563;28;20228;-84
2023/12/03 06:48:21;;;;;;;2.88;2.67;;;15.40;38.30;;;;;;5027124;28;20247;-84
2023/12/03 06:50:48;;;;;;;3.10;2.90;;;15.40;39.00;;;;;;5027502;28;20221;-83
2023/12/03 06:53:16;;;;;;;3.00;2.80;;;15.50;38.30;;;;;;5025612;28;20243;-84
2023/12/03 06:55:42;;;;;;;3.33;3.03;;;15.40;38.40;;;;;;5024506;28;20208;-84
2023/12/03 06:58:12;;;;;;;3.30;3.00;;;15.40;38.20;;;;;;5022248;28;20193;-84
2023/12/03 07:00:39;;;;;;;3.47;3.17;;;15.50;38.30;;;;;;5015722;28;20208;-83
2023/12/03 07:03:06;;;;;;;3.05;2.85;;;15.50;38.10;;;;;;5015186;28;20200;-83
2023/12/03 07:05:33;;;;;;;3.25;3.00;;;15.50;38.20;;;;;;5014989;28;20595;-84
2023/12/03 07:07:59;;;;;;;2.88;2.67;;;15.50;38.20;;;;;;5015782;28;20220;-83
2023/12/03 07:10:26;;;;;;;3.17;2.88;;;15.50;38.10;;;;;;5015638;28;20196;-83
2023/12/03 07:12:54;;;;;;;3.38;3.08;;;15.50;38.10;;;;;;5014920;28;20201;-84
2023/12/03 07:15:30;;;;;;;3.42;3.13;;;15.50;38.10;;;;;;5013779;28;20324;-84
2023/12/03 07:17:57;;;;;;;2.92;2.72;;;15.40;37.90;;;;;;5014477;28;20271;-84
2023/12/03 07:20:25;;;;;;;2.90;2.70;;;15.50;38.10;;;;;;4982821;28;20553;-84
2023/12/03 07:22:52;;;;;;;3.45;3.15;;;15.50;38.00;;;;;;5013882;28;20205;-84
2023/12/03 07:25:19;;;;;;;2.97;2.78;;;15.50;37.90;;;;;;5013569;28;20248;-84
2023/12/03 07:27:46;;;;;;;3.15;2.95;;;15.50;38.00;;;;;;4997612;28;20220;-84
2023/12/03 07:30:14;;;;;;;3.15;2.85;;;15.50;37.80;;;;;;5014766;28;20196;-84
2023/12/03 07:32:42;;;;;;;3.30;3.00;;;15.50;37.90;;;;;;5017909;28;20709;-84
2023/12/03 07:35:09;;;;;;;3.00;2.80;;;15.50;37.90;;;;;;5015676;28;20224;-84
2023/12/03 07:37:36;;;;;;;3.25;2.95;;;15.50;37.90;;;;;;5015687;28;20197;-83
2023/12/03 07:40:04;;;;;;;3.58;3.28;;;15.40;37.90;;;;;;5016423;28;20205;-84
2023/12/03 07:42:31;;;;;;;3.30;3.00;;;15.40;37.70;;;;;;5015753;28;20196;-84
2023/12/03 07:44:57;;;;;;;3.95;3.55;;;15.40;37.80;;;;;;5015062;28;20621;-84
2023/12/03 07:47:25;;;;;;;3.30;3.03;;;15.40;37.80;;;;;;5014894;28;20221;-83
2023/12/03 07:49:53;;;;;;;3.60;3.30;;;15.50;37.90;;;;;;5015402;28;20232;-83
2023/12/03 07:52:20;;;;;;;3.42;3.13;;;15.40;37.60;;;;;;5015583;28;20207;-84
2023/12/03 07:54:47;;;;;;;3.30;3.00;;;15.40;37.70;;;;;;5014868;28;20228;-84
2023/12/03 07:57:14;;;;;;;3.40;3.10;;;15.50;37.80;;;;;;5016269;28;20220;-84
2023/12/03 07:59:41;;;;;;;3.95;3.60;;;15.50;37.80;;;;;;5123337;23;20237;-81
2023/12/03 08:02:08;;;;;;;3.70;3.40;;;15.50;37.80;;;;;;5014421;28;20538;-81
2023/12/03 08:04:35;;;;;;;3.33;3.03;;;15.50;37.70;;;;;;5014997;28;20201;-81
2023/12/03 08:07:04;;;;;;;3.95;3.40;;;15.50;37.70;;;;;;5014560;28;20661;-81
2023/12/03 08:09:31;;;;;;;3.80;3.50;;;15.50;37.70;;;;;;5014137;28;20256;-81
2023/12/03 08:11:58;;;;;;;3.90;3.60;;;15.50;37.70;;;;;;5013597;28;20197;-81
2023/12/03 08:14:25;;;;;;;3.50;3.20;;;15.50;37.70;;;;;;5013167;28;20630;-81
2023/12/03 08:16:52;;;;;;;3.40;3.10;;;15.40;37.60;;;;;;5013997;28;20547;-81
2023/12/03 08:19:19;;;;;;;3.60;3.30;;;15.50;37.70;;;;;;5014380;28;20660;-81
2023/12/03 08:21:47;;;;;;;3.70;3.40;;;15.50;37.70;;;;;;5014529;28;20204;-81
2023/12/03 08:24:15;;;;;;;4.20;3.80;;;15.50;37.70;;;;;;5014563;28;20211;-81
2023/12/03 08:26:42;;;;;;;3.40;3.10;;;15.60;37.70;;;;;;5013850;28;20228;-81
2023/12/03 08:29:10;;;;;;;3.92;3.63;;;15.60;37.70;;;;;;5014249;28;20201;-81
2023/12/03 08:31:37;;;;;;;3.47;3.17;;;15.50;37.70;;;;;;5016350;28;20200;-81
2023/12/03 08:34:04;;;;;;;3.72;3.42;;;15.60;37.60;;;;;;5017073;28;20232;-81
2023/12/03 08:36:31;;;;;;;3.70;3.40;;;15.50;37.50;;;;;;5017792;28;20230;-81
2023/12/03 08:38:58;;;;;;;3.92;3.63;;;15.40;37.40;;;;;;5018130;28;20528;-81
2023/12/03 08:41:26;;;;;;;3.30;3.00;;;15.40;37.60;;;;;;5017591;28;20200;-81
2023/12/03 08:43:53;;;;;;;3.35;3.05;;;15.40;37.60;;;;;;5000886;28;20201;-81
2023/12/03 08:46:21;;;;;;;4.00;3.70;;;15.40;37.90;;;;;;5017112;28;20217;-81
2023/12/03 08:48:48;;;;;;;3.10;2.90;;;15.40;37.90;;;;;;5001370;28;20249;-81
2023/12/03 08:51:15;;;;;;;3.75;3.45;;;15.40;38.10;;;;;;5017825;28;20291;-81
2023/12/03 08:53:42;;;;;;;3.33;3.03;;;15.50;37.90;;;;;;5016693;28;20292;-81
2023/12/03 08:56:12;;;;;;;3.97;3.67;;;15.50;37.90;;;;;;5016562;28;20222;-81
2023/12/03 08:58:40;;;;;;;3.42;3.22;;;15.40;37.60;;;;;;5016693;28;20268;-81
2023/12/03 09:01:07;;;;;;;3.67;3.33;;;15.40;37.60;;;;;;5016510;28;20201;-81
2023/12/03 09:03:33;;;;;;;4.00;3.40;;;15.50;37.70;;;;;;5016423;28;20239;-81
2023/12/03 09:06:01;;;;;;;3.53;3.22;;;15.50;37.70;;;;;;5016379;28;20260;-81
2023/12/03 09:08:28;;;;;;;3.75;3.45;;;15.50;37.70;;;;;;5015820;28;20263;-82
2023/12/03 09:10:55;;;;;;;3.50;3.20;;;15.50;37.70;;;;;;5015524;28;20207;-81
2023/12/03 09:13:22;;;;;;;3.70;3.40;;;15.50;37.70;;;;;;5015824;28;20219;-81
2023/12/03 09:15:51;;;;;;;4.20;3.80;;;15.50;37.60;;;;;;5000017;28;20279;-81
2023/12/03 09:18:18;;;;;;;3.85;3.55;;;15.60;37.80;;;;;;5016324;28;20225;-81
2023/12/03 09:20:45;;;;;;;3.90;3.60;;;15.60;37.70;;;;;;5015709;28;20682;-81
2023/12/03 09:23:12;;;;;;;3.50;3.20;;;15.60;37.70;;;;;;5016672;28;20207;-81
2023/12/03 09:25:40;;;;;;;4.07;3.67;;;15.60;37.70;;;;;;5015885;28;20288;-81
2023/12/03 09:28:07;;;;;;;4.53;4.13;;;15.60;37.70;;;;;;5015647;28;20221;-81
2023/12/03 09:30:34;;;;;;;3.83;3.53;;;15.60;38.30;;;;;;5015756;28;20655;-81
2023/12/03 09:33:02;;;;;;;4.25;3.70;;;15.70;37.70;;;;;;5015279;28;20201;-81
2023/12/03 09:35:29;;;;;;;4.30;3.92;;;15.60;37.50;;;;;;5015306;28;20307;-81
2023/12/03 09:37:56;;;;;;;4.30;3.90;;;15.70;37.70;;;;;;5015067;28;20197;-81
2023/12/03 09:40:23;;;;;;;4.32;4.00;;;15.70;37.60;;;;;;5015038;28;20201;-81
2023/12/03 09:42:51;;;;;;;3.55;3.25;;;15.70;37.40;;;;;;5014957;28;20203;-81
2023/12/03 09:45:19;;;;;;;4.10;3.80;;;15.70;37.50;;;;;;5015305;28;20223;-81
2023/12/03 09:47:48;;;;;;;3.55;3.28;;;15.80;37.40;;;;;;5015150;28;20224;-81
2023/12/03 09:50:17;;;;;;;4.30;3.90;;;15.70;37.40;;;;;;5015205;28;20258;-81
2023/12/03 09:52:44;;;;;;;4.53;4.13;;;15.70;37.40;;;;;;5015561;28;20201;-81
2023/12/03 09:55:10;;;;;;;4.25;3.95;;;15.70;37.40;;;;;;5016318;28;20259;-81
2023/12/03 09:57:38;;;;;;;4.70;4.30;;;15.70;37.40;;;;;;5016741;28;20200;-81
2023/12/03 10:00:05;;;;;;;4.22;3.83;;;15.70;37.40;;;;;;5015376;28;20209;-81
2023/12/03 10:02:37;;;;;;;3.90;3.60;;;15.70;37.60;;;;;;5016899;28;20181;-81
2023/12/03 10:05:04;;;;;;;4.10;3.80;;;15.70;37.60;;;;;;5016322;28;20226;-81
2023/12/03 10:07:33;;;;;;;4.03;3.72;;;15.70;37.50;;;;;;5015860;28;20216;-81
2023/12/03 10:10:01;;;;;;;4.00;3.60;;;15.70;37.50;;;;;;5014340;28;20203;-81
2023/12/03 10:12:31;;;;;;;3.72;3.25;;;15.80;37.60;;;;;;5014297;28;20208;-81
2023/12/03 10:14:59;;;;;;;3.47;3.17;;;15.70;37.70;;;;;;5014357;28;20694;-81
2023/12/03 10:17:26;;;;;;;4.32;3.92;;;15.70;37.50;;;;;;4997771;28;20232;-81
2023/12/03 10:19:53;;;;;;;4.45;4.05;;;15.80;37.70;;;;;;4998112;28;20239;-81
2023/12/03 10:22:32;;;;;;;4.40;3.95;;;15.70;37.50;;;;;;5014189;28;20201;-81
2023/12/03 10:24:59;;;;;;;3.97;3.67;;;15.80;37.60;;;;;;5016020;28;20221;-81
2023/12/03 10:27:29;;;;;;;4.43;4.03;;;15.80;37.60;;;;;;5015580;28;20197;-81
2023/12/03 10:29:56;;;;;;;3.88;3.58;;;15.80;37.70;;;;;;5015851;28;20205;-81
2023/12/03 10:32:23;;;;;;;4.40;4.00;;;15.80;37.50;;;;;;5015978;28;20200;-81
2023/12/03 10:34:50;;;;;;;4.80;4.30;;;15.80;37.60;;;;;;5015922;28;20220;-81
2023/12/03 10:37:18;;;;;;;3.97;3.50;;;15.80;37.60;;;;;;5015324;28;20228;-81
2023/12/03 10:39:46;;;;;;;3.97;3.58;;;15.80;37.60;;;;;;5015482;28;20204;-81
2023/12/03 10:42:13;;;;;;;4.88;4.47;;;15.80;37.60;;;;;;5015193;28;20208;-81
2023/12/03 10:44:40;;;;;;;4.70;4.30;;;15.80;37.40;;;;;;5016460;28;20205;-81
2023/12/03 10:47:07;;;;;;;4.13;3.75;;;15.80;37.90;;;;;;5016841;28;20216;-81
2023/12/03 10:49:34;;;;;;;4.45;4.07;;;15.80;37.90;;;;;;5016502;28;20316;-81
2023/12/03 10:52:01;;;;;;;4.43;4.03;;;15.80;37.80;;;;;;5015963;28;20685;-81
2023/12/03 10:54:28;;;;;;;4.63;4.22;;;15.80;37.60;;;;;;5014732;28;20251;-82
2023/12/03 10:56:57;;;;;;;4.35;3.95;;;15.90;37.70;;;;;;5014096;28;20206;-82
2023/12/03 10:59:25;;;;;;;4.13;3.83;;;15.90;37.80;;;;;;5015496;28;20196;-81
2023/12/03 11:01:54;;;;;;;3.92;3.63;;;16.00;37.60;;;;;;5015621;28;20224;-82
2023/12/03 11:04:26;;;;;;;3.78;3.33;;;16.00;37.60;;;;;;5015579;28;20288;-82
2023/12/03 11:06:54;;;;;;;4.05;3.75;;;16.00;37.60;;;;;;5014358;28;20189;-81
2023/12/03 11:09:21;;;;;;;3.92;3.63;;;16.00;37.70;;;;;;5013118;28;20576;-81
2023/12/03 11:11:48;;;;;;;4.03;3.72;;;16.00;37.60;;;;;;4997440;28;20201;-81
2023/12/03 11:14:17;;;;;;;3.97;3.67;;;15.90;37.60;;;;;;5013552;28;20730;-82
2023/12/03 11:16:54;;;;;;;3.60;3.30;;;16.00;37.50;;;;;;5013789;28;20223;-82
2023/12/03 11:19:21;;;;;;;4.00;3.60;;;16.00;37.80;;;;;;5014611;28;20212;-82
2023/12/03 11:21:57;;;;;;;4.53;4.13;;;16.10;37.80;;;;;;5014853;28;20200;-82
2023/12/03 11:24:42;;;;;;;4.30;3.90;;;16.10;37.90;;;;;;5014908;28;20188;-81
2023/12/03 11:27:09;;;;;;;4.47;4.07;;;16.20;37.80;;;;;;5014238;28;20204;-81
2023/12/03 11:29:49;;;;;;;4.50;4.10;;;16.20;37.70;;;;;;5016138;28;20223;-81
2023/12/03 11:32:16;;;;;;;4.95;4.55;;;16.30;37.80;;;;;;5016676;28;20251;-80
2023/12/03 11:34:43;;;;;;;4.38;4.07;;;16.30;37.70;;;;;;5016556;28;20635;-81
2023/12/03 11:37:10;;;;;;;4.60;4.20;;;16.30;37.80;;;;;;5015008;28;20196;-80
2023/12/03 11:39:39;;;;;;;4.43;4.03;;;16.30;37.90;;;;;;5015600;28;20280;-80
2023/12/03 11:42:07;;;;;;;5.53;5.07;;;16.20;38.20;;;;;;5015395;28;20189;-81
2023/12/03 11:44:34;;;;;;;5.20;4.70;;;16.20;36.90;;;;;;5014464;28;20220;-80
2023/12/03 11:47:07;;;;;;;5.25;4.75;;;16.20;37.10;;;;;;5014175;28;20196;-81
2023/12/03 11:49:34;;;;;;;5.50;5.00;;;16.20;38.00;;;;;;5013614;28;20232;-81
2023/12/03 11:52:01;;;;;;;6.30;5.70;;;16.20;37.90;;;;;;5013704;28;20200;-80
2023/12/03 11:54:31;;;;;;;5.97;5.47;;;16.10;36.00;;;;;;5014255;28;20201;-81
2023/12/03 11:56:58;;;;;;;5.45;4.95;;;16.10;36.40;;;;;;5013924;28;20542;-81
2023/12/03 11:59:25;;;;;;;5.20;4.80;;;16.10;36.50;;;;;;5014519;28;20227;-80
2023/12/03 12:01:52;;;;;;;5.93;5.32;;;16.00;36.60;;;;;;5015263;28;20204;-80
2023/12/03 12:04:24;;;;;;;5.40;4.85;;;16.10;36.70;;;;;;5014716;28;20211;-81
2023/12/03 12:06:51;;;;;;;5.80;5.20;;;16.10;37.20;;;;;;5018784;28;20197;-81
2023/12/03 12:09:22;;;;;;;4.82;4.43;;;16.10;37.60;;;;;;5017175;28;20216;-80
2023/12/03 12:11:49;;;;;;;5.50;5.00;;;16.00;37.80;;;;;;5016918;28;20196;-81
2023/12/03 12:14:17;;;;;;;4.53;4.13;;;16.00;38.00;;;;;;5016630;28;20196;-81
2023/12/03 12:16:43;;;;;;;5.28;4.78;;;16.00;38.20;;;;;;5016363;28;20706;-80
2023/12/03 12:19:11;;;;;;;4.85;4.45;;;16.10;38.40;;;;;;5017109;28;20560;-80
2023/12/03 12:21:52;;;;;;;4.97;4.50;;;16.00;38.60;;;;;;5020066;28;20292;-80
2023/12/03 12:24:19;;;;;;;4.85;4.45;;;16.10;38.60;;;;;;5018623;28;20284;-80
2023/12/03 12:26:47;;;;;;;5.55;5.05;;;16.00;38.70;;;;;;5002481;28;20304;-80
2023/12/03 12:29:14;;;;;;;4.93;4.43;;;16.00;38.70;;;;;;5018256;28;20419;-80
2023/12/03 12:31:41;;;;;;;4.90;4.50;;;16.00;38.90;;;;;;5019519;28;20555;-80
2023/12/03 12:34:08;;;;;;;5.15;4.75;;;16.10;38.90;;;;;;5002397;28;20235;-80
2023/12/03 12:36:35;;;;;;;5.07;4.60;;;16.10;39.10;;;;;;5017400;28;20324;-81
2023/12/03 12:39:03;;;;;;;5.18;4.53;;;16.10;39.00;;;;;;5017621;28;20193;-80
2023/12/03 12:41:38;;;;;;;5.05;4.65;;;16.10;39.10;;;;;;5017507;28;20204;-80
2023/12/03 12:44:05;;;;;;;4.68;4.20;;;16.20;39.20;;;;;;5017836;28;20295;-80
2023/12/03 12:46:32;;;;;;;5.00;4.50;;;16.20;39.20;;;;;;5001966;28;20224;-80
2023/12/03 12:49:15;;;;;;;5.30;4.80;;;16.20;39.10;;;;;;5017797;28;20243;-80